Time;durP1;ratioP1;P1;durP2;ratioP2;P2;SDS_P1;SDS_P2;PMS_P1;PMS_P2;Temp;Humidity;BMP_temperature;BMP_pressure;BME280_temperature;BME280_humidity;BME280_pressure;Samples;Min_cycle;Max_cycle;Signal;HPM_P1;HPM_P2
2022/11/03 00:01:56;;;;;;;9.20;3.70;;;7.60;68.60;;;;;;5000464;28;20465;-58
2022/11/03 00:04:22;;;;;;;7.85;3.60;;;7.60;68.60;;;;;;5001469;28;20026;-60
2022/11/03 00:06:53;;;;;;;5.65;3.25;;;7.60;68.70;;;;;;5000291;28;20026;-59
2022/11/03 00:09:20;;;;;;;8.55;3.08;;;7.60;69.00;;;;;;5000652;28;20038;-59
2022/11/03 00:11:49;;;;;;;8.27;4.10;;;7.60;68.80;;;;;;5010625;28;20026;-59
2022/11/03 00:14:15;;;;;;;7.00;2.97;;;7.50;68.60;;;;;;5007735;28;20040;-59
2022/11/03 00:16:42;;;;;;;5.53;2.67;;;7.50;68.50;;;;;;5012105;28;20057;-59
2022/11/03 00:19:09;;;;;;;6.60;2.30;;;7.50;68.70;;;;;;5001268;28;20033;-59
2022/11/03 00:21:35;;;;;;;6.30;2.80;;;7.50;68.90;;;;;;5008336;28;20070;-59
2022/11/03 00:24:01;;;;;;;5.40;2.45;;;7.50;69.00;;;;;;5009837;28;20026;-60
2022/11/03 00:26:32;;;;;;;7.25;2.90;;;7.50;69.00;;;;;;5005275;28;20026;-60
2022/11/03 00:29:12;;;;;;;6.30;2.53;;;7.40;69.00;;;;;;5002587;28;20030;-59
2022/11/03 00:31:39;;;;;;;8.85;2.65;;;7.40;68.90;;;;;;5003747;28;20094;-60
2022/11/03 00:34:06;;;;;;;5.90;2.78;;;7.40;68.80;;;;;;5001146;28;20065;-60
2022/11/03 00:36:35;;;;;;;6.38;2.40;;;7.40;68.80;;;;;;5004430;28;20116;-59
2022/11/03 00:39:03;;;;;;;3.80;2.72;;;7.40;68.80;;;;;;5003794;28;20014;-59
2022/11/03 00:41:28;;;;;;;7.22;2.83;;;7.40;68.90;;;;;;5006856;28;20053;-57
2022/11/03 00:43:54;;;;;;;7.20;2.83;;;7.40;68.90;;;;;;5002623;28;20041;-59
2022/11/03 00:46:22;;;;;;;8.15;3.20;;;7.40;69.00;;;;;;5002195;28;20037;-58
2022/11/03 00:48:48;;;;;;;5.95;3.00;;;7.30;69.00;;;;;;5005934;28;20113;-59
2022/11/03 00:51:18;;;;;;;6.72;3.00;;;7.30;69.00;;;;;;5006011;28;20073;-59
2022/11/03 00:53:45;;;;;;;4.43;2.80;;;7.30;68.90;;;;;;5000025;28;20022;-59
2022/11/03 00:56:16;;;;;;;4.70;3.22;;;7.30;68.80;;;;;;4996649;28;20053;-60
2022/11/03 00:58:43;;;;;;;7.65;3.10;;;7.30;69.00;;;;;;4999981;28;20029;-61
2022/11/03 01:01:15;;;;;;;6.18;3.22;;;7.30;69.10;;;;;;5005334;28;20038;-61
2022/11/03 01:09:12;;;;;;;6.45;3.45;;;7.20;68.90;;;;;;4997733;28;20081;-59
2022/11/03 01:11:43;;;;;;;6.65;3.55;;;7.20;68.80;;;;;;4995938;28;20035;-60
2022/11/03 01:14:12;;;;;;;7.25;3.72;;;7.20;68.80;;;;;;4999526;28;20053;-59
2022/11/03 01:16:38;;;;;;;7.47;3.58;;;7.20;69.00;;;;;;4997894;28;20023;-58
2022/11/03 01:19:04;;;;;;;8.27;3.60;;;7.20;69.10;;;;;;5002646;28;20061;-60
2022/11/03 01:21:29;;;;;;;7.22;3.67;;;7.10;69.00;;;;;;4997199;28;20049;-59
2022/11/03 01:23:55;;;;;;;7.90;3.53;;;7.10;69.00;;;;;;4999915;28;20117;-58
2022/11/03 01:26:21;;;;;;;7.78;3.40;;;7.10;69.00;;;;;;4996042;28;20034;-59
2022/11/03 01:28:47;;;;;;;6.40;2.95;;;7.10;68.90;;;;;;4998915;28;20030;-59
2022/11/03 01:31:19;;;;;;;5.18;2.80;;;7.10;69.10;;;;;;5000781;28;20058;-59
2022/11/03 01:33:46;;;;;;;6.07;2.75;;;7.10;69.10;;;;;;5005096;28;20034;-59
2022/11/03 01:36:13;;;;;;;5.72;2.80;;;7.10;69.00;;;;;;4996251;28;20072;-60
2022/11/03 01:38:39;;;;;;;5.72;2.75;;;7.10;68.80;;;;;;4999961;28;20030;-60
2022/11/03 01:41:07;;;;;;;4.68;2.30;;;7.00;68.80;;;;;;4999310;28;20019;-60
2022/11/03 01:43:33;;;;;;;6.20;3.00;;;7.00;69.00;;;;;;4998004;28;20631;-60
2022/11/03 01:46:20;;;;;;;5.30;2.92;;;7.00;69.00;;;;;;4998991;28;20073;-59
2022/11/03 01:48:57;;;;;;;3.97;2.83;;;7.00;69.30;;;;;;5001307;28;20436;-58
2022/11/03 01:51:23;;;;;;;4.80;2.30;;;7.00;69.10;;;;;;4997665;28;20034;-60
2022/11/03 01:53:52;;;;;;;7.50;2.90;;;7.00;69.00;;;;;;4999966;28;20095;-58
2022/11/03 01:56:19;;;;;;;5.35;2.75;;;6.90;69.00;;;;;;5000759;28;20050;-58
2022/11/03 01:58:49;;;;;;;5.68;2.60;;;6.90;68.90;;;;;;4999383;28;20053;-59
2022/11/03 02:01:15;;;;;;;4.65;2.70;;;6.90;69.00;;;;;;5003418;28;20049;-58
2022/11/03 02:03:47;;;;;;;4.88;2.80;;;6.90;69.10;;;;;;5008434;28;21201;-58
2022/11/03 02:06:13;;;;;;;5.93;3.13;;;6.90;69.30;;;;;;5012779;28;20064;-59
2022/11/03 02:08:46;;;;;;;5.47;2.78;;;6.90;69.10;;;;;;4993185;28;20041;-58
2022/11/03 02:13:57;;;;;;;8.40;2.92;;;6.80;68.90;;;;;;4993884;28;20112;-60
2022/11/03 02:16:25;;;;;;;5.13;2.95;;;6.80;69.00;;;;;;5000521;28;20035;-59
2022/11/03 02:18:52;;;;;;;7.82;3.28;;;6.80;69.10;;;;;;5000481;28;20028;-60
2022/11/03 02:21:34;;;;;;;6.63;3.17;;;6.80;69.00;;;;;;4994694;28;20057;-59
2022/11/03 02:24:00;;;;;;;5.07;3.25;;;6.80;69.10;;;;;;4996632;28;20186;-59
2022/11/03 02:26:26;;;;;;;9.90;3.10;;;6.70;68.90;;;;;;4996132;28;20026;-60
2022/11/03 02:28:52;;;;;;;7.63;3.60;;;6.70;68.80;;;;;;4996323;28;20038;-58
2022/11/03 02:31:34;;;;;;;5.88;3.40;;;6.70;68.90;;;;;;4998526;28;20045;-61
2022/11/03 02:34:08;;;;;;;4.90;3.05;;;6.70;69.00;;;;;;5006631;28;20030;-60
2022/11/03 02:36:58;;;;;;;10.55;3.20;;;6.60;68.80;;;;;;5000614;28;20030;-59
2022/11/03 02:39:44;;;;;;;7.53;3.45;;;6.60;69.00;;;;;;5006267;28;20030;-58
2022/11/03 02:42:12;;;;;;;5.90;3.15;;;6.60;69.00;;;;;;5001910;28;20092;-60
2022/11/03 02:44:38;;;;;;;6.03;3.28;;;6.60;68.80;;;;;;5001268;28;20030;-58
2022/11/03 02:47:09;;;;;;;5.57;3.17;;;6.50;68.70;;;;;;4996812;28;20037;-58
2022/11/03 02:49:39;;;;;;;7.05;3.47;;;6.60;69.00;;;;;;5000672;28;20061;-59
2022/11/03 02:52:05;;;;;;;7.03;3.38;;;6.50;69.20;;;;;;5001815;28;20116;-59
2022/11/03 02:54:37;;;;;;;10.10;3.92;;;6.50;69.20;;;;;;5002485;28;20030;-59
2022/11/03 02:57:17;;;;;;;8.55;3.45;;;6.50;69.40;;;;;;4997220;28;20051;-59
2022/11/03 02:59:51;;;;;;;7.03;3.45;;;6.50;69.70;;;;;;4996680;28;20031;-58
2022/11/03 03:02:22;;;;;;;5.28;2.97;;;6.50;69.50;;;;;;4994207;28;20109;-58
2022/11/03 03:04:56;;;;;;;7.90;3.50;;;6.50;69.30;;;;;;5000546;28;20026;-59
2022/11/03 03:07:28;;;;;;;5.25;2.83;;;6.50;69.30;;;;;;4995163;28;20018;-59
2022/11/03 03:10:22;;;;;;;7.18;3.75;;;6.50;69.30;;;;;;4997267;28;20038;-59
2022/11/03 03:12:52;;;;;;;6.15;3.20;;;6.50;69.50;;;;;;4991741;28;20802;-59
2022/11/03 03:15:21;;;;;;;8.48;3.22;;;6.40;69.10;;;;;;5000057;28;20054;-61
2022/11/03 03:18:00;;;;;;;5.15;2.85;;;6.40;69.00;;;;;;4992513;28;20031;-58
2022/11/03 03:21:18;;;;;;;6.22;3.70;;;6.40;69.00;;;;;;4999066;28;20057;-58
2022/11/03 03:23:56;;;;;;;8.10;3.67;;;6.40;69.20;;;;;;4917745;29;20099;-59
2022/11/03 03:26:43;;;;;;;10.13;3.17;;;6.30;68.90;;;;;;4910829;29;20091;-60
2022/11/03 03:29:27;;;;;;;9.95;3.85;;;6.30;69.10;;;;;;4911755;29;20047;-59
2022/11/03 03:31:57;;;;;;;9.10;3.87;;;6.30;69.20;;;;;;4915348;29;20124;-59
2022/11/03 03:34:25;;;;;;;6.15;3.72;;;6.30;69.20;;;;;;4918738;29;20292;-59
2022/11/03 03:36:53;;;;;;;6.95;3.50;;;6.30;69.50;;;;;;4906576;29;20039;-62
2022/11/03 03:39:20;;;;;;;8.05;4.00;;;6.20;69.60;;;;;;4912044;29;20131;-58
2022/11/03 03:41:48;;;;;;;6.13;3.88;;;6.30;69.70;;;;;;4916012;29;20144;-60
2022/11/03 03:44:16;;;;;;;6.05;3.50;;;6.20;69.60;;;;;;4919453;29;20093;-59
2022/11/03 03:46:47;;;;;;;10.00;3.47;;;6.20;69.50;;;;;;4915775;29;20067;-59
2022/11/03 03:49:13;;;;;;;8.38;3.40;;;6.20;69.30;;;;;;4912356;29;20079;-60
2022/11/03 03:51:40;;;;;;;7.78;3.78;;;6.20;70.00;;;;;;4911251;29;20150;-59
2022/11/03 03:54:06;;;;;;;6.20;4.03;;;6.20;69.30;;;;;;4917800;29;20036;-58
2022/11/03 03:56:48;;;;;;;8.52;3.47;;;6.20;69.30;;;;;;4901572;29;20052;-58
2022/11/03 03:59:14;;;;;;;7.47;3.63;;;6.20;69.50;;;;;;4945443;28;20034;-60
2022/11/03 04:01:40;;;;;;;5.90;3.92;;;6.20;69.40;;;;;;5000164;28;20034;-59
2022/11/03 04:04:06;;;;;;;9.75;4.20;;;6.20;69.50;;;;;;4995999;28;20435;-58
2022/11/03 04:06:31;;;;;;;4.72;3.50;;;6.20;69.50;;;;;;5002908;28;20031;-59
2022/11/03 04:08:57;;;;;;;7.43;3.47;;;6.10;69.50;;;;;;5001551;28;20122;-59
2022/11/03 04:22:22;;;;;;;5.43;3.65;;;6.10;69.30;;;;;;5000442;28;20598;-58
2022/11/03 04:24:50;;;;;;;8.07;4.05;;;6.10;69.40;;;;;;5004454;28;20239;-60
2022/11/03 04:27:33;;;;;;;8.93;4.00;;;6.10;69.50;;;;;;5004831;28;20208;-60
2022/11/03 04:30:19;;;;;;;5.93;3.40;;;6.10;69.90;;;;;;5009697;28;20041;-58
2022/11/03 04:32:47;;;;;;;5.80;3.35;;;6.10;69.70;;;;;;5001314;28;20030;-58
2022/11/03 04:35:18;;;;;;;6.72;3.78;;;6.10;69.40;;;;;;5002086;28;20442;-59
2022/11/03 04:37:50;;;;;;;7.78;3.85;;;6.10;69.30;;;;;;5007560;28;20044;-59
2022/11/03 04:40:17;;;;;;;5.65;3.45;;;6.10;69.40;;;;;;5004083;28;20022;-59
2022/11/03 04:42:43;;;;;;;5.57;3.42;;;6.10;69.50;;;;;;5000336;28;20050;-59
2022/11/03 04:45:23;;;;;;;7.72;3.88;;;6.10;69.70;;;;;;5008559;28;20052;-59
2022/11/03 04:47:51;;;;;;;7.55;3.65;;;6.10;70.10;;;;;;5001137;28;20085;-59
2022/11/03 04:50:19;;;;;;;12.40;4.13;;;6.10;70.20;;;;;;5007371;28;20029;-58
2022/11/03 04:52:47;;;;;;;6.63;3.97;;;6.10;70.40;;;;;;5015108;28;20056;-59
2022/11/03 04:55:18;;;;;;;6.32;3.38;;;6.10;70.40;;;;;;4999390;28;20117;-59
2022/11/03 04:57:44;;;;;;;8.40;3.60;;;6.10;70.70;;;;;;4999194;28;20055;-58
2022/11/03 05:00:16;;;;;;;8.48;4.07;;;6.20;70.70;;;;;;5000898;28;20033;-59
2022/11/03 05:02:44;;;;;;;6.60;3.80;;;6.20;70.90;;;;;;5000355;28;20026;-59
2022/11/03 05:05:21;;;;;;;7.55;4.03;;;6.20;70.90;;;;;;4999838;28;20026;-59
2022/11/03 05:07:55;;;;;;;5.60;3.38;;;6.30;71.30;;;;;;5008441;28;20022;-59
2022/11/03 05:10:25;;;;;;;8.63;3.70;;;6.30;71.30;;;;;;5000876;28;20062;-58
2022/11/03 05:12:52;;;;;;;7.50;4.10;;;6.30;71.10;;;;;;5009616;28;20026;-58
2022/11/03 05:15:35;;;;;;;8.18;3.83;;;6.40;71.20;;;;;;5002078;28;20037;-61
2022/11/03 05:18:12;;;;;;;6.00;4.00;;;6.40;71.60;;;;;;4998380;28;20027;-60
2022/11/03 05:20:46;;;;;;;7.55;3.92;;;6.40;71.30;;;;;;4999451;28;20031;-59
2022/11/03 05:23:13;;;;;;;5.97;3.90;;;6.50;72.00;;;;;;5004459;28;20030;-59
2022/11/03 05:25:45;;;;;;;9.75;4.00;;;6.50;71.20;;;;;;5002150;28;20065;-58
2022/11/03 05:28:34;;;;;;;8.98;4.55;;;6.50;71.30;;;;;;5002938;28;20034;-59
2022/11/03 05:31:00;;;;;;;7.80;4.05;;;6.60;71.50;;;;;;5002331;28;20530;-59
2022/11/03 05:33:32;;;;;;;6.60;3.88;;;6.60;71.30;;;;;;5008435;28;20086;-59
2022/11/03 05:36:04;;;;;;;10.52;5.07;;;6.60;71.30;;;;;;5005161;28;20015;-59
2022/11/03 05:38:32;;;;;;;11.80;5.32;;;6.60;71.40;;;;;;5004325;28;20029;-59
2022/11/03 05:40:59;;;;;;;12.32;5.03;;;6.70;71.40;;;;;;5006369;28;20521;-59
2022/11/03 05:43:27;;;;;;;14.68;5.72;;;6.70;71.50;;;;;;5001822;28;20026;-61
2022/11/03 05:45:57;;;;;;;10.27;5.15;;;6.70;71.60;;;;;;4998919;28;20050;-60
2022/11/03 05:48:32;;;;;;;14.05;5.22;;;6.70;71.70;;;;;;4992668;28;20038;-60
2022/11/03 05:50:59;;;;;;;17.17;5.15;;;6.80;72.10;;;;;;4950165;28;20049;-58
2022/11/03 05:53:31;;;;;;;18.42;5.47;;;6.80;71.70;;;;;;5006102;28;20030;-58
2022/11/03 05:56:00;;;;;;;14.52;5.40;;;6.90;71.80;;;;;;5007150;28;20066;-59
2022/11/03 05:58:40;;;;;;;18.08;6.20;;;6.90;71.60;;;;;;4997949;28;20046;-59
2022/11/03 06:01:18;;;;;;;15.50;5.40;;;6.90;72.10;;;;;;4999356;28;20029;-59
2022/11/03 06:03:44;;;;;;;23.92;6.63;;;6.90;72.00;;;;;;4995949;28;20030;-59
2022/11/03 06:06:28;;;;;;;18.63;6.47;;;6.90;71.60;;;;;;4997814;28;20408;-58
2022/11/03 06:08:56;;;;;;;22.52;5.50;;;6.90;72.30;;;;;;5001844;28;20037;-59
2022/11/03 06:11:34;;;;;;;24.33;5.65;;;7.00;71.90;;;;;;5000339;28;20030;-58
2022/11/03 06:14:01;;;;;;;25.15;6.55;;;7.20;72.30;;;;;;4999755;28;20030;-59
2022/11/03 06:16:55;;;;;;;35.13;6.95;;;7.00;71.90;;;;;;4999879;28;20114;-60
2022/11/03 06:19:43;;;;;;;31.63;6.78;;;7.00;72.90;;;;;;4999598;28;20026;-60
2022/11/03 06:22:21;;;;;;;36.63;5.85;;;7.10;72.90;;;;;;5001075;28;20030;-60
2022/11/03 06:24:47;;;;;;;25.58;6.32;;;7.10;72.40;;;;;;5005323;28;20022;-61
2022/11/03 06:27:28;;;;;;;19.55;5.78;;;7.10;72.00;;;;;;5000390;28;20562;-59
2022/11/03 06:30:02;;;;;;;38.40;6.22;;;7.10;72.20;;;;;;4999444;28;20030;-59
2022/11/03 06:32:29;;;;;;;59.42;6.40;;;7.10;72.40;;;;;;4993133;28;20036;-60
2022/11/03 06:34:56;;;;;;;80.25;7.80;;;7.10;72.20;;;;;;5001059;28;20053;-59
2022/11/03 06:37:29;;;;;;;32.35;7.82;;;7.10;72.50;;;;;;4999963;28;20031;-59
2022/11/03 06:40:15;;;;;;;32.35;7.10;;;7.20;72.80;;;;;;4999917;28;20088;-61
2022/11/03 06:42:41;;;;;;;49.72;7.18;;;7.20;73.00;;;;;;5002407;28;20033;-59
2022/11/03 06:45:13;;;;;;;44.97;8.45;;;7.30;72.90;;;;;;5000956;28;20014;-59
2022/11/03 06:47:41;;;;;;;58.67;7.00;;;7.30;73.20;;;;;;5009277;28;20022;-58
2022/11/03 06:50:21;;;;;;;63.35;7.82;;;7.30;73.20;;;;;;4918579;28;20043;-60
2022/11/03 06:52:48;;;;;;;86.60;9.15;;;7.30;73.70;;;;;;5000286;28;20105;-58
2022/11/03 06:55:28;;;;;;;67.82;8.05;;;7.40;73.30;;;;;;5006537;28;20616;-59
2022/11/03 06:58:01;;;;;;;39.13;6.70;;;7.40;73.90;;;;;;5000806;28;20118;-58
2022/11/03 07:00:28;;;;;;;34.28;5.90;;;7.50;73.60;;;;;;4999739;28;20052;-61
2022/11/03 07:03:24;;;;;;;35.33;6.70;;;7.50;73.60;;;;;;5002352;28;20022;-59
2022/11/03 07:05:50;;;;;;;23.27;5.45;;;7.50;74.40;;;;;;4999565;28;20019;-60
2022/11/03 07:08:29;;;;;;;75.25;7.75;;;7.60;73.70;;;;;;5006088;28;20041;-58
2022/11/03 07:11:15;;;;;;;39.30;6.72;;;7.60;74.30;;;;;;5000570;28;20121;-58
2022/11/03 07:13:41;;;;;;;50.53;7.38;;;7.70;74.40;;;;;;4999325;28;20050;-59
2022/11/03 07:16:17;;;;;;;18.83;7.32;;;7.70;73.90;;;;;;5004874;28;20050;-60
2022/11/03 07:18:46;;;;;;;45.22;7.43;;;7.80;74.30;;;;;;5004083;28;20026;-59
2022/11/03 07:21:45;;;;;;;44.80;8.52;;;7.80;73.70;;;;;;4997838;28;20026;-59
2022/11/03 07:24:21;;;;;;;19.70;7.28;;;7.90;74.60;;;;;;4993793;28;20034;-58
2022/11/03 07:27:12;;;;;;;43.78;7.25;;;8.00;74.10;;;;;;4995624;28;20539;-60
2022/11/03 07:29:39;;;;;;;37.05;8.55;;;8.00;73.90;;;;;;4965559;28;20047;-59
2022/11/03 07:32:15;;;;;;;50.33;7.78;;;8.00;73.90;;;;;;4959774;28;20310;-59
2022/11/03 07:34:41;;;;;;;51.63;8.48;;;8.10;74.20;;;;;;4945760;28;20039;-59
2022/11/03 07:37:19;;;;;;;40.05;7.57;;;8.20;73.90;;;;;;4943270;28;20043;-60
2022/11/03 07:39:45;;;;;;;42.97;6.90;;;8.20;74.00;;;;;;4959977;28;20062;-60
2022/11/03 07:42:37;;;;;;;34.65;6.63;;;8.20;73.90;;;;;;4948734;28;20027;-60
2022/11/03 07:45:31;;;;;;;32.53;6.85;;;8.30;74.80;;;;;;4959821;28;20051;-60
2022/11/03 07:47:56;;;;;;;66.13;5.72;;;8.40;74.70;;;;;;4964225;28;20040;-60
2022/11/03 07:50:22;;;;;;;33.55;5.57;;;8.40;73.80;;;;;;4920704;28;20126;-59
2022/11/03 07:52:48;;;;;;;40.63;6.38;;;8.40;73.50;;;;;;4961872;28;20032;-59
2022/11/03 07:55:14;;;;;;;52.25;6.18;;;8.50;73.60;;;;;;4968130;28;20620;-59
2022/11/03 07:57:40;;;;;;;53.70;6.03;;;8.50;73.70;;;;;;4957740;28;20055;-60
2022/11/03 08:00:20;;;;;;;49.53;5.00;;;8.50;73.80;;;;;;4966623;28;20050;-60
2022/11/03 08:03:04;;;;;;;72.22;5.50;;;8.60;74.20;;;;;;4961546;28;20138;-58
2022/11/03 08:05:30;;;;;;;27.83;4.40;;;8.60;74.20;;;;;;4957864;28;20119;-58
2022/11/03 08:07:55;;;;;;;27.02;4.80;;;8.70;73.60;;;;;;4990088;28;22250;-59
2022/11/03 08:10:21;;;;;;;32.35;4.95;;;8.70;73.60;;;;;;4994633;28;20536;-59
2022/11/03 08:12:47;;;;;;;26.38;4.55;;;8.70;73.90;;;;;;4987354;28;20516;-59
2022/11/03 08:15:14;;;;;;;53.85;5.50;;;8.70;74.00;;;;;;4991212;28;20088;-58
2022/11/03 08:17:40;;;;;;;25.73;4.90;;;8.80;74.00;;;;;;4997348;28;20026;-60
2022/11/03 08:20:06;;;;;;;14.65;5.63;;;8.80;74.00;;;;;;4998786;28;20040;-58
2022/11/03 08:22:32;;;;;;;35.88;4.78;;;8.90;74.00;;;;;;4995195;28;20090;-58
2022/11/03 08:24:57;;;;;;;34.55;6.00;;;8.90;73.90;;;;;;4993306;28;21240;-58
2022/11/03 08:27:23;;;;;;;20.65;5.47;;;9.00;73.90;;;;;;4995088;28;20034;-59
2022/11/03 08:29:49;;;;;;;31.95;4.82;;;9.00;73.90;;;;;;5001535;28;20111;-58
2022/11/03 08:32:15;;;;;;;31.33;5.10;;;9.00;73.90;;;;;;4989760;28;20057;-58
2022/11/03 08:34:40;;;;;;;18.77;4.93;;;9.10;74.00;;;;;;4998838;28;20031;-58
2022/11/03 08:37:06;;;;;;;31.65;8.32;;;9.10;73.80;;;;;;4991674;28;20027;-58
2022/11/03 08:39:32;;;;;;;29.63;5.85;;;9.20;74.00;;;;;;5000194;28;20034;-58
2022/11/03 08:41:57;;;;;;;25.50;5.63;;;9.20;73.90;;;;;;4992296;28;20030;-59
2022/11/03 08:44:23;;;;;;;23.55;6.05;;;9.30;73.90;;;;;;4996558;28;20475;-59
2022/11/03 08:46:48;;;;;;;27.90;5.18;;;9.30;73.60;;;;;;4988204;28;20038;-60
2022/11/03 08:49:14;;;;;;;33.92;5.70;;;9.30;73.70;;;;;;4990611;28;20038;-60
2022/11/03 08:51:40;;;;;;;28.15;6.43;;;9.40;73.80;;;;;;5006292;28;20066;-59
2022/11/03 08:54:05;;;;;;;33.72;6.57;;;9.40;73.80;;;;;;4993928;28;20061;-59
2022/11/03 08:56:31;;;;;;;44.45;6.55;;;9.40;73.60;;;;;;4998742;28;20046;-60
2022/11/03 08:58:57;;;;;;;36.40;5.15;;;9.50;73.70;;;;;;5008523;28;20018;-60
2022/11/03 09:01:24;;;;;;;36.58;6.05;;;9.50;73.70;;;;;;5002801;28;20049;-61
2022/11/03 09:03:49;;;;;;;15.30;4.93;;;9.50;73.50;;;;;;5008266;28;20030;-58
2022/11/03 09:06:15;;;;;;;18.55;4.78;;;9.50;73.50;;;;;;5003310;28;20337;-60
2022/11/03 09:08:41;;;;;;;19.23;7.75;;;9.50;73.70;;;;;;5008122;28;20112;-60
2022/11/03 09:11:06;;;;;;;38.75;6.45;;;9.60;74.00;;;;;;5001644;28;20033;-58
2022/11/03 09:13:32;;;;;;;24.92;6.95;;;9.60;74.00;;;;;;5004241;28;20082;-59
2022/11/03 09:15:59;;;;;;;13.27;5.78;;;9.60;74.10;;;;;;5005206;28;20029;-59
2022/11/03 09:18:25;;;;;;;72.53;23.48;;;9.70;74.20;;;;;;4996628;28;20038;-59
2022/11/03 09:20:50;;;;;;;19.35;7.47;;;9.70;74.10;;;;;;4998440;28;20029;-58
2022/11/03 09:23:16;;;;;;;32.83;6.90;;;9.70;74.10;;;;;;5000921;28;20027;-58
2022/11/03 09:25:41;;;;;;;23.55;5.07;;;9.80;73.80;;;;;;4989430;28;20101;-58
2022/11/03 09:28:07;;;;;;;18.20;4.88;;;9.80;73.70;;;;;;4984915;28;20043;-58
2022/11/03 09:30:33;;;;;;;9.40;4.35;;;9.90;73.70;;;;;;4996099;28;20042;-59
2022/11/03 09:32:58;;;;;;;16.20;5.13;;;9.90;73.60;;;;;;4995226;28;20498;-59
2022/11/03 09:35:24;;;;;;;20.55;5.07;;;9.90;73.20;;;;;;4992649;28;20034;-59
2022/11/03 09:37:50;;;;;;;13.60;4.88;;;9.90;73.30;;;;;;4995296;28;20509;-59
2022/11/03 09:40:16;;;;;;;14.48;4.60;;;9.90;73.50;;;;;;4995797;28;20465;-59
2022/11/03 09:42:44;;;;;;;15.55;5.22;;;9.80;73.40;;;;;;4991747;28;20105;-60
2022/11/03 09:45:09;;;;;;;11.02;5.03;;;9.90;73.50;;;;;;5001552;28;20050;-59
2022/11/03 09:47:38;;;;;;;11.00;5.13;;;9.90;73.50;;;;;;5008731;28;20038;-59
2022/11/03 09:50:05;;;;;;;16.08;5.60;;;10.00;73.50;;;;;;4988244;28;20062;-59
2022/11/03 09:52:34;;;;;;;15.57;4.60;;;10.00;73.40;;;;;;4989051;28;20018;-59
2022/11/03 09:55:00;;;;;;;11.95;4.85;;;10.00;73.40;;;;;;4994136;28;20030;-61
2022/11/03 09:57:27;;;;;;;11.10;6.40;;;10.10;73.50;;;;;;5009122;28;20053;-59
2022/11/03 09:59:53;;;;;;;10.18;6.07;;;10.10;73.70;;;;;;4997404;28;20126;-58
2022/11/03 10:02:25;;;;;;;14.02;6.40;;;10.20;73.90;;;;;;4981951;28;20102;-58
2022/11/03 10:04:54;;;;;;;8.23;5.18;;;10.20;74.20;;;;;;4991074;28;20030;-60
2022/11/03 10:07:22;;;;;;;11.23;5.63;;;10.30;73.90;;;;;;4992634;28;20026;-59
2022/11/03 10:09:51;;;;;;;7.32;4.88;;;10.40;73.80;;;;;;5004443;28;20067;-60
2022/11/03 10:12:17;;;;;;;9.88;5.60;;;10.50;73.70;;;;;;4995997;28;20019;-59
2022/11/03 10:14:45;;;;;;;7.03;4.70;;;10.50;73.50;;;;;;5001786;28;20038;-59
2022/11/03 10:17:19;;;;;;;14.57;5.65;;;10.60;73.60;;;;;;4989091;28;20034;-59
2022/11/03 10:19:49;;;;;;;;;;;10.70;73.50;;;;;;4982406;28;20034;-59
2022/11/03 10:22:16;;;;;;;9.35;5.72;;;10.70;73.70;;;;;;4996771;28;19921;-57
2022/11/03 10:24:42;;;;;;;7.15;5.53;;;10.80;73.20;;;;;;4994710;28;20174;-59
2022/11/03 10:27:25;;;;;;;12.48;5.30;;;10.90;73.50;;;;;;4995256;28;20463;-58
2022/11/03 10:30:09;;;;;;;8.73;5.93;;;11.00;73.80;;;;;;4976914;28;20141;-58
2022/11/03 10:32:35;;;;;;;11.93;5.30;;;11.00;73.90;;;;;;4995581;28;20030;-59
2022/11/03 10:35:33;;;;;;;6.22;4.47;;;11.10;73.50;;;;;;4991404;28;20047;-60
2022/11/03 10:38:35;;;;;;;6.25;4.35;;;11.20;73.80;;;;;;4998989;28;20048;-59
2022/11/03 10:41:34;;;;;;;6.03;4.63;;;11.30;73.30;;;;;;4999031;28;20078;-59
2022/11/03 10:44:20;;;;;;;5.63;3.83;;;11.40;73.40;;;;;;5000243;28;20711;-60
2022/11/03 10:46:59;;;;;;;9.25;6.63;;;11.50;72.60;;;;;;5001863;28;20041;-60
2022/11/03 10:49:47;;;;;;;6.03;4.85;;;11.50;72.40;;;;;;5000257;28;20044;-59
2022/11/03 10:52:20;;;;;;;5.45;4.13;;;11.60;72.80;;;;;;4991602;28;20034;-58
2022/11/03 10:54:48;;;;;;;6.95;4.35;;;11.60;72.70;;;;;;4996197;28;20058;-59
2022/11/03 10:57:15;;;;;;;7.60;4.93;;;11.60;72.60;;;;;;4996716;28;20145;-59
2022/11/03 10:59:42;;;;;;;6.82;4.80;;;11.70;72.50;;;;;;5002043;28;20099;-59
2022/11/03 11:02:24;;;;;;;6.45;4.80;;;11.70;72.40;;;;;;4999392;28;20022;-59
2022/11/03 11:04:58;;;;;;;10.82;4.75;;;11.90;72.30;;;;;;5013180;28;20091;-59
2022/11/03 11:07:32;;;;;;;7.45;3.95;;;11.90;71.80;;;;;;5007762;28;20464;-59
2022/11/03 11:10:18;;;;;;;4.75;3.92;;;11.90;71.70;;;;;;5005213;28;20050;-60
2022/11/03 11:13:18;;;;;;;4.47;3.95;;;11.90;71.60;;;;;;5010861;28;20022;-60
2022/11/03 11:15:44;;;;;;;4.72;4.00;;;11.90;71.90;;;;;;5008757;28;20206;-59
2022/11/03 11:18:30;;;;;;;5.43;4.07;;;12.00;71.60;;;;;;5013618;28;20037;-60
2022/11/03 11:21:28;;;;;;;6.57;4.55;;;12.00;71.30;;;;;;5004627;28;20034;-59
2022/11/03 11:23:54;;;;;;;5.82;4.57;;;12.00;71.60;;;;;;4988950;28;20061;-59
2022/11/03 11:26:25;;;;;;;8.40;5.53;;;12.00;71.30;;;;;;5007947;28;20022;-59
2022/11/03 11:29:10;;;;;;;6.10;4.80;;;12.00;71.80;;;;;;5003334;28;20045;-60
2022/11/03 11:31:38;;;;;;;;;;;12.00;71.50;;;;;;5003052;28;20165;-59
2022/11/03 11:34:22;;;;;;;10.65;4.65;;;12.10;71.60;;;;;;5005310;28;19917;-60
2022/11/03 11:37:40;;;;;;;6.18;3.97;;;12.10;71.20;;;;;;5001203;28;20057;-60
2022/11/03 11:40:49;;;;;;;6.70;4.60;;;12.10;71.40;;;;;;4920133;29;20056;-60
2022/11/03 11:43:17;;;;;;;5.93;4.88;;;12.10;71.00;;;;;;4917506;29;20505;-59
2022/11/03 11:46:20;;;;;;;6.30;4.75;;;12.10;71.20;;;;;;4905991;29;20040;-60
2022/11/03 11:48:55;;;;;;;7.47;5.32;;;12.10;71.50;;;;;;4917962;29;20056;-60
2022/11/03 11:51:22;;;;;;;7.47;5.07;;;12.00;71.50;;;;;;4910472;29;20080;-60
2022/11/03 11:53:53;;;;;;;7.15;5.35;;;12.10;71.50;;;;;;4923213;29;20035;-60
2022/11/03 11:56:18;;;;;;;6.43;5.75;;;12.10;71.50;;;;;;4915048;29;20043;-61
2022/11/03 11:58:59;;;;;;;9.10;6.43;;;12.10;71.10;;;;;;4916592;29;20040;-61
2022/11/03 12:01:29;;;;;;;8.95;6.38;;;12.10;71.30;;;;;;4914709;29;20105;-60
2022/11/03 12:03:58;;;;;;;9.85;6.30;;;12.10;71.00;;;;;;4902222;29;20485;-60
2022/11/03 12:06:38;;;;;;;9.00;6.07;;;12.10;71.20;;;;;;4909684;29;20076;-60
2022/11/03 12:09:26;;;;;;;8.45;6.57;;;12.10;71.30;;;;;;4913142;29;20028;-59
2022/11/03 12:33:01;;;;;;;15.07;8.82;;;11.90;71.60;;;;;;4963759;28;20054;-59
2022/11/03 12:43:37;;;;;;;14.88;8.02;;;11.90;71.80;;;;;;4847503;29;20053;-58
2022/11/03 13:00:38;;;;;;;20.08;10.07;;;11.80;71.50;;;;;;4842791;29;20065;-59
2022/11/03 13:04:08;;;;;;;21.45;10.30;;;11.80;72.10;;;;;;4838428;29;20070;-60
2022/11/03 13:07:22;;;;;;;21.15;11.77;;;11.90;72.40;;;;;;4841564;29;20050;-60
2022/11/03 13:10:53;;;;;;;17.02;10.48;;;11.90;72.00;;;;;;4852763;29;20057;-59
2022/11/03 13:14:25;;;;;;;26.50;13.85;;;12.00;72.00;;;;;;4830815;29;20066;-61
2022/11/03 13:17:57;;;;;;;25.50;13.65;;;11.90;72.00;;;;;;4796016;29;20141;-60
2022/11/03 13:21:04;;;;;;;26.27;14.73;;;12.00;72.30;;;;;;4848312;29;20110;-57
2022/11/03 13:24:10;;;;;;;29.85;16.40;;;12.00;72.30;;;;;;4858518;29;20438;-60
2022/11/03 13:26:54;;;;;;;24.80;14.32;;;12.00;72.90;;;;;;4858163;29;20069;-60
2022/11/03 13:29:41;;;;;;;35.90;18.23;;;12.00;72.00;;;;;;4852883;29;20053;-59
2022/11/03 13:32:08;;;;;;;42.53;21.02;;;12.10;72.20;;;;;;4874759;29;20044;-60
2022/11/03 13:34:34;;;;;;;44.92;22.65;;;12.10;71.80;;;;;;4931796;29;20046;-59
2022/11/03 13:37:00;;;;;;;44.75;22.63;;;12.10;71.60;;;;;;4946537;28;20046;-60
2022/11/03 13:39:51;;;;;;;49.72;24.13;;;12.10;71.60;;;;;;5003990;28;20479;-58
2022/11/03 13:43:13;;;;;;;44.33;20.73;;;12.00;72.10;;;;;;5008274;28;20042;-59
2022/11/03 13:46:04;;;;;;;45.28;21.70;;;12.00;72.30;;;;;;4991873;28;20057;-59
2022/11/03 13:49:03;;;;;;;42.50;21.95;;;12.00;72.50;;;;;;5006414;28;20048;-59
2022/11/03 13:52:16;;;;;;;43.97;22.58;;;12.00;72.10;;;;;;5005687;28;20106;-59
2022/11/03 13:55:36;;;;;;;34.42;18.92;;;12.10;72.40;;;;;;4984900;28;20060;-60
2022/11/03 13:58:47;;;;;;;84.30;47.30;;;12.10;72.50;;;;;;4921766;29;20036;-58
2022/11/03 14:02:40;;;;;;;49.92;26.42;;;12.10;72.00;;;;;;4972266;28;20081;-59
2022/11/03 14:06:34;;;;;;;35.55;19.88;;;12.10;72.40;;;;;;4956304;28;20042;-59
2022/11/03 14:10:09;;;;;;;30.25;15.52;;;12.10;72.30;;;;;;4960152;28;20082;-60
2022/11/03 14:13:49;;;;;;;24.38;14.20;;;12.10;72.30;;;;;;4939046;29;20039;-59
2022/11/03 14:16:31;;;;;;;23.35;12.35;;;12.10;72.40;;;;;;4955872;28;20041;-58
2022/11/03 14:19:20;;;;;;;21.45;12.05;;;12.10;72.00;;;;;;4960624;28;20339;-60
2022/11/03 14:22:07;;;;;;;21.73;12.13;;;12.00;72.00;;;;;;4960281;28;20082;-59
2022/11/03 14:25:13;;;;;;;23.52;13.30;;;12.10;72.00;;;;;;4943637;29;20039;-59
2022/11/03 14:27:41;;;;;;;25.15;15.02;;;12.10;72.60;;;;;;4969414;28;20026;-60
2022/11/03 14:30:34;;;;;;;20.98;12.60;;;12.10;72.20;;;;;;4963450;28;20047;-60
2022/11/03 14:34:04;;;;;;;13.93;9.63;;;12.10;72.40;;;;;;4947567;29;20043;-59